sensor_id;sensor_type;location;lat;lon;timestamp;P1;durP1;ratioP1;P2;durP2;ratioP2
77522;SDS011;66637;-29.628;-49.938;2023-06-14T00:00:59;6.47;;;1.10;;
77522;SDS011;66637;-29.628;-49.938;2023-06-14T00:03:35;6.05;;;0.93;;
77522;SDS011;66637;-29.628;-49.938;2023-06-14T00:06:12;7.80;;;1.20;;
77522;SDS011;66637;-29.628;-49.938;2023-06-14T00:08:44;4.72;;;1.20;;
77522;SDS011;66637;-29.628;-49.938;2023-06-14T00:11:18;8.15;;;2.42;;
77522;SDS011;66637;-29.628;-49.938;2023-06-14T00:13:52;6.05;;;1.65;;
77522;SDS011;66637;-29.628;-49.938;2023-06-14T00:16:23;6.15;;;1.30;;
77522;SDS011;66637;-29.628;-49.938;2023-06-14T00:18:57;3.33;;;1.13;;
77522;SDS011;66637;-29.628;-49.938;2023-06-14T00:21:30;6.75;;;1.27;;
77522;SDS011;66637;-29.628;-49.938;2023-06-14T00:24:08;4.68;;;0.98;;
77522;SDS011;66637;-29.628;-49.938;2023-06-14T00:26:39;6.15;;;1.40;;
77522;SDS011;66637;-29.628;-49.938;2023-06-14T00:29:12;5.63;;;1.38;;
77522;SDS011;66637;-29.628;-49.938;2023-06-14T00:31:44;4.35;;;0.80;;
77522;SDS011;66637;-29.628;-49.938;2023-06-14T00:34:18;5.88;;;0.70;;
77522;SDS011;66637;-29.628;-49.938;2023-06-14T00:36:53;6.35;;;0.95;;
77522;SDS011;66637;-29.628;-49.938;2023-06-14T00:39:25;4.70;;;0.77;;
77522;SDS011;66637;-29.628;-49.938;2023-06-14T00:41:57;4.55;;;0.63;;
77522;SDS011;66637;-29.628;-49.938;2023-06-14T00:44:28;4.90;;;0.85;;
77522;SDS011;66637;-29.628;-49.938;2023-06-14T00:47:04;2.55;;;0.60;;
77522;SDS011;66637;-29.628;-49.938;2023-06-14T00:49:41;4.88;;;0.80;;
77522;SDS011;66637;-29.628;-49.938;2023-06-14T00:52:15;2.63;;;0.60;;
77522;SDS011;66637;-29.628;-49.938;2023-06-14T00:54:48;4.80;;;0.93;;
77522;SDS011;66637;-29.628;-49.938;2023-06-14T00:57:19;2.97;;;1.00;;
77522;SDS011;66637;-29.628;-49.938;2023-06-14T00:59:53;2.63;;;0.70;;
77522;SDS011;66637;-29.628;-49.938;2023-06-14T01:02:26;4.35;;;1.00;;
77522;SDS011;66637;-29.628;-49.938;2023-06-14T01:05:00;6.38;;;1.08;;
77522;SDS011;66637;-29.628;-49.938;2023-06-14T01:13:31;4.43;;;0.70;;
77522;SDS011;66637;-29.628;-49.938;2023-06-14T01:16:09;2.53;;;0.88;;
77522;SDS011;66637;-29.628;-49.938;2023-06-14T01:18:41;4.55;;;0.70;;
77522;SDS011;66637;-29.628;-49.938;2023-06-14T01:21:22;5.53;;;0.85;;
77522;SDS011;66637;-29.628;-49.938;2023-06-14T01:23:58;5.00;;;0.93;;
77522;SDS011;66637;-29.628;-49.938;2023-06-14T01:26:33;3.80;;;0.70;;
77522;SDS011;66637;-29.628;-49.938;2023-06-14T01:29:08;7.10;;;1.50;;
77522;SDS011;66637;-29.628;-49.938;2023-06-14T01:31:41;5.45;;;1.20;;
77522;SDS011;66637;-29.628;-49.938;2023-06-14T01:34:11;7.28;;;1.08;;
77522;SDS011;66637;-29.628;-49.938;2023-06-14T01:36:43;4.95;;;1.00;;
77522;SDS011;66637;-29.628;-49.938;2023-06-14T01:39:16;5.45;;;1.00;;
77522;SDS011;66637;-29.628;-49.938;2023-06-14T01:41:48;5.18;;;0.90;;
77522;SDS011;66637;-29.628;-49.938;2023-06-14T01:44:20;5.55;;;1.10;;
77522;SDS011;66637;-29.628;-49.938;2023-06-14T01:46:52;8.02;;;1.13;;
77522;SDS011;66637;-29.628;-49.938;2023-06-14T01:49:24;4.60;;;0.90;;
77522;SDS011;66637;-29.628;-49.938;2023-06-14T01:51:56;7.32;;;1.00;;
77522;SDS011;66637;-29.628;-49.938;2023-06-14T01:54:28;7.47;;;1.10;;
77522;SDS011;66637;-29.628;-49.938;2023-06-14T01:57:02;5.82;;;0.90;;
77522;SDS011;66637;-29.628;-49.938;2023-06-14T01:59:37;5.25;;;0.90;;
77522;SDS011;66637;-29.628;-49.938;2023-06-14T02:02:09;5.35;;;0.73;;
77522;SDS011;66637;-29.628;-49.938;2023-06-14T02:04:40;5.65;;;0.68;;
77522;SDS011;66637;-29.628;-49.938;2023-06-14T02:07:11;5.47;;;0.43;;
77522;SDS011;66637;-29.628;-49.938;2023-06-14T02:09:42;6.32;;;0.60;;
77522;SDS011;66637;-29.628;-49.938;2023-06-14T02:12:13;3.35;;;0.45;;
77522;SDS011;66637;-29.628;-49.938;2023-06-14T02:14:43;2.10;;;0.47;;
77522;SDS011;66637;-29.628;-49.938;2023-06-14T02:17:17;4.35;;;0.50;;
77522;SDS011;66637;-29.628;-49.938;2023-06-14T02:19:48;3.85;;;0.75;;
77522;SDS011;66637;-29.628;-49.938;2023-06-14T02:22:20;4.07;;;0.43;;
77522;SDS011;66637;-29.628;-49.938;2023-06-14T02:24:52;4.50;;;0.90;;
77522;SDS011;66637;-29.628;-49.938;2023-06-14T02:27:29;3.42;;;0.90;;
77522;SDS011;66637;-29.628;-49.938;2023-06-14T02:30:00;4.85;;;0.80;;
77522;SDS011;66637;-29.628;-49.938;2023-06-14T02:32:33;7.47;;;0.90;;
77522;SDS011;66637;-29.628;-49.938;2023-06-14T02:35:06;5.50;;;1.00;;
77522;SDS011;66637;-29.628;-49.938;2023-06-14T02:37:37;4.07;;;0.60;;
77522;SDS011;66637;-29.628;-49.938;2023-06-14T02:40:11;2.90;;;0.55;;
77522;SDS011;66637;-29.628;-49.938;2023-06-14T02:42:43;5.03;;;1.05;;
77522;SDS011;66637;-29.628;-49.938;2023-06-14T02:45:13;5.07;;;0.77;;
77522;SDS011;66637;-29.628;-49.938;2023-06-14T02:47:45;4.90;;;1.00;;
77522;SDS011;66637;-29.628;-49.938;2023-06-14T02:50:19;5.38;;;0.70;;
77522;SDS011;66637;-29.628;-49.938;2023-06-14T02:52:53;3.42;;;0.50;;
77522;SDS011;66637;-29.628;-49.938;2023-06-14T02:55:26;5.25;;;0.75;;
77522;SDS011;66637;-29.628;-49.938;2023-06-14T02:57:58;3.45;;;0.60;;
77522;SDS011;66637;-29.628;-49.938;2023-06-14T03:00:29;3.13;;;0.50;;
77522;SDS011;66637;-29.628;-49.938;2023-06-14T03:03:01;5.45;;;0.60;;
77522;SDS011;66637;-29.628;-49.938;2023-06-14T03:05:34;3.90;;;0.60;;
77522;SDS011;66637;-29.628;-49.938;2023-06-14T03:08:07;4.22;;;0.60;;
77522;SDS011;66637;-29.628;-49.938;2023-06-14T03:10:37;2.88;;;0.47;;
77522;SDS011;66637;-29.628;-49.938;2023-06-14T03:13:10;1.58;;;0.30;;
77522;SDS011;66637;-29.628;-49.938;2023-06-14T03:15:42;4.50;;;0.65;;
77522;SDS011;66637;-29.628;-49.938;2023-06-14T03:18:27;4.03;;;0.50;;
77522;SDS011;66637;-29.628;-49.938;2023-06-14T03:21:01;4.07;;;0.57;;
77522;SDS011;66637;-29.628;-49.938;2023-06-14T03:23:34;3.72;;;0.50;;
77522;SDS011;66637;-29.628;-49.938;2023-06-14T03:26:05;4.10;;;0.82;;
77522;SDS011;66637;-29.628;-49.938;2023-06-14T03:28:36;3.55;;;0.40;;
77522;SDS011;66637;-29.628;-49.938;2023-06-14T03:31:06;4.72;;;0.60;;
77522;SDS011;66637;-29.628;-49.938;2023-06-14T03:33:41;4.25;;;0.50;;
77522;SDS011;66637;-29.628;-49.938;2023-06-14T03:36:15;6.00;;;0.40;;
77522;SDS011;66637;-29.628;-49.938;2023-06-14T03:38:47;5.63;;;0.50;;
77522;SDS011;66637;-29.628;-49.938;2023-06-14T03:41:17;5.20;;;0.60;;
77522;SDS011;66637;-29.628;-49.938;2023-06-14T03:43:51;3.25;;;0.40;;
77522;SDS011;66637;-29.628;-49.938;2023-06-14T03:46:22;5.90;;;0.60;;
77522;SDS011;66637;-29.628;-49.938;2023-06-14T03:48:53;3.05;;;0.70;;
77522;SDS011;66637;-29.628;-49.938;2023-06-14T03:51:27;4.47;;;1.00;;
77522;SDS011;66637;-29.628;-49.938;2023-06-14T03:53:59;4.03;;;0.60;;
77522;SDS011;66637;-29.628;-49.938;2023-06-14T03:56:55;2.80;;;0.75;;
77522;SDS011;66637;-29.628;-49.938;2023-06-14T03:59:26;3.00;;;0.70;;
77522;SDS011;66637;-29.628;-49.938;2023-06-14T04:02:04;7.28;;;1.20;;
77522;SDS011;66637;-29.628;-49.938;2023-06-14T04:04:37;3.47;;;0.70;;
77522;SDS011;66637;-29.628;-49.938;2023-06-14T04:07:07;2.63;;;0.60;;
77522;SDS011;66637;-29.628;-49.938;2023-06-14T04:09:39;3.80;;;0.80;;
77522;SDS011;66637;-29.628;-49.938;2023-06-14T04:12:11;2.08;;;0.52;;
77522;SDS011;66637;-29.628;-49.938;2023-06-14T04:14:42;3.60;;;0.55;;
77522;SDS011;66637;-29.628;-49.938;2023-06-14T04:17:13;3.20;;;0.60;;
77522;SDS011;66637;-29.628;-49.938;2023-06-14T04:19:45;3.40;;;0.50;;
77522;SDS011;66637;-29.628;-49.938;2023-06-14T04:22:18;5.47;;;0.65;;
77522;SDS011;66637;-29.628;-49.938;2023-06-14T04:24:50;4.18;;;0.60;;
77522;SDS011;66637;-29.628;-49.938;2023-06-14T04:27:32;3.40;;;0.60;;
77522;SDS011;66637;-29.628;-49.938;2023-06-14T04:30:14;2.10;;;0.30;;
77522;SDS011;66637;-29.628;-49.938;2023-06-14T04:32:50;2.22;;;0.85;;
77522;SDS011;66637;-29.628;-49.938;2023-06-14T04:35:24;5.43;;;0.65;;
77522;SDS011;66637;-29.628;-49.938;2023-06-14T04:37:56;3.05;;;0.63;;
77522;SDS011;66637;-29.628;-49.938;2023-06-14T04:40:28;2.70;;;0.45;;
77522;SDS011;66637;-29.628;-49.938;2023-06-14T04:43:01;6.97;;;0.70;;
77522;SDS011;66637;-29.628;-49.938;2023-06-14T04:45:44;2.78;;;0.47;;
77522;SDS011;66637;-29.628;-49.938;2023-06-14T04:48:16;3.22;;;0.38;;
77522;SDS011;66637;-29.628;-49.938;2023-06-14T04:50:50;1.02;;;0.30;;
77522;SDS011;66637;-29.628;-49.938;2023-06-14T04:53:24;5.97;;;0.50;;
77522;SDS011;66637;-29.628;-49.938;2023-06-14T04:55:59;4.22;;;0.47;;
77522;SDS011;66637;-29.628;-49.938;2023-06-14T04:58:36;2.67;;;0.50;;
77522;SDS011;66637;-29.628;-49.938;2023-06-14T05:01:09;2.40;;;0.40;;
77522;SDS011;66637;-29.628;-49.938;2023-06-14T05:03:40;4.05;;;0.35;;
77522;SDS011;66637;-29.628;-49.938;2023-06-14T05:06:12;2.92;;;0.32;;
77522;SDS011;66637;-29.628;-49.938;2023-06-14T05:08:44;2.85;;;0.50;;
77522;SDS011;66637;-29.628;-49.938;2023-06-14T05:11:17;3.30;;;0.68;;
77522;SDS011;66637;-29.628;-49.938;2023-06-14T05:13:46;4.88;;;0.50;;
77522;SDS011;66637;-29.628;-49.938;2023-06-14T05:16:18;2.60;;;0.50;;
77522;SDS011;66637;-29.628;-49.938;2023-06-14T05:18:50;1.98;;;0.40;;
77522;SDS011;66637;-29.628;-49.938;2023-06-14T05:21:22;3.33;;;0.60;;
77522;SDS011;66637;-29.628;-49.938;2023-06-14T05:23:56;1.75;;;0.30;;
77522;SDS011;66637;-29.628;-49.938;2023-06-14T05:26:26;2.60;;;0.43;;
77522;SDS011;66637;-29.628;-49.938;2023-06-14T05:28:59;3.40;;;0.40;;
77522;SDS011;66637;-29.628;-49.938;2023-06-14T05:31:32;2.30;;;0.50;;
77522;SDS011;66637;-29.628;-49.938;2023-06-14T05:37:13;3.00;;;0.40;;
77522;SDS011;66637;-29.628;-49.938;2023-06-14T05:39:43;3.28;;;0.40;;
77522;SDS011;66637;-29.628;-49.938;2023-06-14T05:42:14;1.95;;;0.38;;
77522;SDS011;66637;-29.628;-49.938;2023-06-14T05:44:46;3.85;;;0.55;;
77522;SDS011;66637;-29.628;-49.938;2023-06-14T05:47:17;2.15;;;0.50;;
77522;SDS011;66637;-29.628;-49.938;2023-06-14T05:49:49;2.65;;;0.40;;
77522;SDS011;66637;-29.628;-49.938;2023-06-14T05:52:44;5.05;;;0.60;;
77522;SDS011;66637;-29.628;-49.938;2023-06-14T05:55:16;3.30;;;0.75;;
77522;SDS011;66637;-29.628;-49.938;2023-06-14T05:57:48;4.38;;;0.75;;
77522;SDS011;66637;-29.628;-49.938;2023-06-14T06:00:22;1.20;;;0.40;;
77522;SDS011;66637;-29.628;-49.938;2023-06-14T06:02:53;1.80;;;0.30;;
77522;SDS011;66637;-29.628;-49.938;2023-06-14T06:05:29;2.38;;;0.40;;
77522;SDS011;66637;-29.628;-49.938;2023-06-14T06:07:59;4.63;;;0.40;;
77522;SDS011;66637;-29.628;-49.938;2023-06-14T06:10:33;5.15;;;0.68;;
77522;SDS011;66637;-29.628;-49.938;2023-06-14T06:13:04;2.00;;;0.30;;
77522;SDS011;66637;-29.628;-49.938;2023-06-14T06:15:38;2.38;;;0.45;;
77522;SDS011;66637;-29.628;-49.938;2023-06-14T06:18:08;4.18;;;0.50;;
77522;SDS011;66637;-29.628;-49.938;2023-06-14T06:20:40;2.63;;;0.50;;
77522;SDS011;66637;-29.628;-49.938;2023-06-14T06:23:10;2.55;;;0.47;;
77522;SDS011;66637;-29.628;-49.938;2023-06-14T06:25:42;2.15;;;0.30;;
77522;SDS011;66637;-29.628;-49.938;2023-06-14T06:28:13;3.38;;;0.77;;
77522;SDS011;66637;-29.628;-49.938;2023-06-14T06:30:44;3.13;;;0.32;;
77522;SDS011;66637;-29.628;-49.938;2023-06-14T06:33:16;1.50;;;0.30;;
77522;SDS011;66637;-29.628;-49.938;2023-06-14T06:35:48;3.92;;;0.40;;
77522;SDS011;66637;-29.628;-49.938;2023-06-14T06:38:18;2.42;;;0.40;;
77522;SDS011;66637;-29.628;-49.938;2023-06-14T06:40:50;1.50;;;0.50;;
77522;SDS011;66637;-29.628;-49.938;2023-06-14T06:43:21;2.15;;;0.30;;
77522;SDS011;66637;-29.628;-49.938;2023-06-14T06:45:53;3.90;;;0.40;;
77522;SDS011;66637;-29.628;-49.938;2023-06-14T06:48:24;3.25;;;0.60;;
77522;SDS011;66637;-29.628;-49.938;2023-06-14T06:50:54;1.70;;;0.35;;
77522;SDS011;66637;-29.628;-49.938;2023-06-14T06:53:25;5.15;;;0.50;;
77522;SDS011;66637;-29.628;-49.938;2023-06-14T06:56:09;3.42;;;0.40;;
77522;SDS011;66637;-29.628;-49.938;2023-06-14T06:58:46;3.05;;;0.45;;
77522;SDS011;66637;-29.628;-49.938;2023-06-14T07:01:19;3.72;;;0.50;;
77522;SDS011;66637;-29.628;-49.938;2023-06-14T07:03:51;1.92;;;0.50;;
77522;SDS011;66637;-29.628;-49.938;2023-06-14T07:06:25;5.72;;;0.55;;
77522;SDS011;66637;-29.628;-49.938;2023-06-14T07:08:57;3.83;;;0.55;;
77522;SDS011;66637;-29.628;-49.938;2023-06-14T07:11:31;4.20;;;0.70;;
77522;SDS011;66637;-29.628;-49.938;2023-06-14T07:14:02;4.70;;;0.70;;
77522;SDS011;66637;-29.628;-49.938;2023-06-14T07:16:32;3.38;;;0.50;;
77522;SDS011;66637;-29.628;-49.938;2023-06-14T07:19:03;3.78;;;0.50;;
77522;SDS011;66637;-29.628;-49.938;2023-06-14T07:21:34;3.47;;;0.60;;
77522;SDS011;66637;-29.628;-49.938;2023-06-14T07:24:09;6.25;;;0.70;;
77522;SDS011;66637;-29.628;-49.938;2023-06-14T07:26:40;5.70;;;0.65;;
77522;SDS011;66637;-29.628;-49.938;2023-06-14T07:29:14;6.85;;;0.68;;
77522;SDS011;66637;-29.628;-49.938;2023-06-14T07:31:46;3.75;;;0.60;;
77522;SDS011;66637;-29.628;-49.938;2023-06-14T07:34:18;2.97;;;0.57;;
77522;SDS011;66637;-29.628;-49.938;2023-06-14T07:36:48;4.20;;;0.90;;
77522;SDS011;66637;-29.628;-49.938;2023-06-14T07:39:19;4.55;;;0.55;;
77522;SDS011;66637;-29.628;-49.938;2023-06-14T07:41:50;2.78;;;0.45;;
77522;SDS011;66637;-29.628;-49.938;2023-06-14T07:44:23;5.72;;;0.60;;
77522;SDS011;66637;-29.628;-49.938;2023-06-14T07:46:56;5.05;;;0.43;;
77522;SDS011;66637;-29.628;-49.938;2023-06-14T07:49:30;4.15;;;0.30;;
77522;SDS011;66637;-29.628;-49.938;2023-06-14T07:52:01;2.70;;;0.40;;
77522;SDS011;66637;-29.628;-49.938;2023-06-14T07:54:32;1.42;;;0.30;;
77522;SDS011;66637;-29.628;-49.938;2023-06-14T07:57:02;3.35;;;0.30;;
77522;SDS011;66637;-29.628;-49.938;2023-06-14T07:59:35;3.33;;;0.40;;
77522;SDS011;66637;-29.628;-49.938;2023-06-14T08:02:06;3.60;;;0.50;;
77522;SDS011;66637;-29.628;-49.938;2023-06-14T08:04:38;3.30;;;0.50;;
77522;SDS011;66637;-29.628;-49.938;2023-06-14T08:07:10;4.45;;;0.60;;
77522;SDS011;66637;-29.628;-49.938;2023-06-14T08:09:41;3.95;;;0.50;;
77522;SDS011;66637;-29.628;-49.938;2023-06-14T08:12:12;3.95;;;0.65;;
77522;SDS011;66637;-29.628;-49.938;2023-06-14T08:14:45;2.50;;;0.40;;
77522;SDS011;66637;-29.628;-49.938;2023-06-14T08:17:28;2.92;;;0.50;;
77522;SDS011;66637;-29.628;-49.938;2023-06-14T08:20:00;3.22;;;0.73;;
77522;SDS011;66637;-29.628;-49.938;2023-06-14T08:22:30;2.25;;;0.65;;
77522;SDS011;66637;-29.628;-49.938;2023-06-14T08:25:03;3.50;;;0.50;;
77522;SDS011;66637;-29.628;-49.938;2023-06-14T08:27:34;3.13;;;0.60;;
77522;SDS011;66637;-29.628;-49.938;2023-06-14T08:30:05;5.63;;;0.60;;
77522;SDS011;66637;-29.628;-49.938;2023-06-14T08:32:38;4.65;;;1.00;;
77522;SDS011;66637;-29.628;-49.938;2023-06-14T08:35:09;2.97;;;0.40;;
77522;SDS011;66637;-29.628;-49.938;2023-06-14T08:37:42;4.47;;;0.65;;
77522;SDS011;66637;-29.628;-49.938;2023-06-14T08:40:21;3.78;;;0.50;;
77522;SDS011;66637;-29.628;-49.938;2023-06-14T08:42:54;3.08;;;0.68;;
77522;SDS011;66637;-29.628;-49.938;2023-06-14T08:45:26;4.35;;;0.65;;
77522;SDS011;66637;-29.628;-49.938;2023-06-14T08:47:59;2.42;;;0.60;;
77522;SDS011;66637;-29.628;-49.938;2023-06-14T08:50:31;3.15;;;0.43;;
77522;SDS011;66637;-29.628;-49.938;2023-06-14T08:53:07;4.97;;;0.50;;
77522;SDS011;66637;-29.628;-49.938;2023-06-14T08:55:41;1.55;;;0.30;;
77522;SDS011;66637;-29.628;-49.938;2023-06-14T08:58:15;3.63;;;0.45;;
77522;SDS011;66637;-29.628;-49.938;2023-06-14T09:00:47;1.52;;;0.40;;
77522;SDS011;66637;-29.628;-49.938;2023-06-14T09:03:19;2.40;;;0.50;;
77522;SDS011;66637;-29.628;-49.938;2023-06-14T09:05:52;1.85;;;0.43;;
77522;SDS011;66637;-29.628;-49.938;2023-06-14T09:08:23;2.35;;;0.38;;
77522;SDS011;66637;-29.628;-49.938;2023-06-14T09:11:01;2.60;;;0.55;;
77522;SDS011;66637;-29.628;-49.938;2023-06-14T09:13:45;4.07;;;0.50;;
77522;SDS011;66637;-29.628;-49.938;2023-06-14T09:16:23;4.03;;;0.50;;
77522;SDS011;66637;-29.628;-49.938;2023-06-14T09:19:02;3.08;;;0.52;;
77522;SDS011;66637;-29.628;-49.938;2023-06-14T09:21:34;2.40;;;0.35;;
77522;SDS011;66637;-29.628;-49.938;2023-06-14T09:24:12;3.00;;;0.57;;
77522;SDS011;66637;-29.628;-49.938;2023-06-14T09:26:53;2.20;;;0.50;;
77522;SDS011;66637;-29.628;-49.938;2023-06-14T09:29:24;3.38;;;0.55;;
77522;SDS011;66637;-29.628;-49.938;2023-06-14T09:31:56;1.42;;;0.40;;
77522;SDS011;66637;-29.628;-49.938;2023-06-14T09:34:26;1.85;;;0.30;;
77522;SDS011;66637;-29.628;-49.938;2023-06-14T09:36:57;5.53;;;0.95;;
77522;SDS011;66637;-29.628;-49.938;2023-06-14T09:39:50;5.80;;;0.50;;
77522;SDS011;66637;-29.628;-49.938;2023-06-14T09:42:21;1.88;;;0.40;;
77522;SDS011;66637;-29.628;-49.938;2023-06-14T09:44:56;2.72;;;0.30;;
77522;SDS011;66637;-29.628;-49.938;2023-06-14T09:47:54;2.20;;;0.32;;
77522;SDS011;66637;-29.628;-49.938;2023-06-14T09:50:35;1.75;;;0.40;;
77522;SDS011;66637;-29.628;-49.938;2023-06-14T09:53:10;4.40;;;0.60;;
77522;SDS011;66637;-29.628;-49.938;2023-06-14T09:55:41;3.35;;;0.45;;
77522;SDS011;66637;-29.628;-49.938;2023-06-14T09:58:15;10.70;;;0.98;;
77522;SDS011;66637;-29.628;-49.938;2023-06-14T10:01:00;8.18;;;0.93;;
77522;SDS011;66637;-29.628;-49.938;2023-06-14T10:03:40;3.55;;;0.50;;
77522;SDS011;66637;-29.628;-49.938;2023-06-14T10:06:17;76.55;;;10.25;;
77522;SDS011;66637;-29.628;-49.938;2023-06-14T10:08:54;21.63;;;4.10;;
77522;SDS011;66637;-29.628;-49.938;2023-06-14T10:11:40;20.25;;;3.40;;
77522;SDS011;66637;-29.628;-49.938;2023-06-14T10:14:17;16.48;;;2.95;;
77522;SDS011;66637;-29.628;-49.938;2023-06-14T10:16:56;16.70;;;5.10;;
77522;SDS011;66637;-29.628;-49.938;2023-06-14T10:19:48;45.15;;;5.90;;
77522;SDS011;66637;-29.628;-49.938;2023-06-14T10:22:34;44.25;;;6.95;;
77522;SDS011;66637;-29.628;-49.938;2023-06-14T10:25:25;37.22;;;6.00;;
77522;SDS011;66637;-29.628;-49.938;2023-06-14T10:31:04;23.50;;;3.58;;
77522;SDS011;66637;-29.628;-49.938;2023-06-14T10:33:55;29.00;;;4.95;;
77522;SDS011;66637;-29.628;-49.938;2023-06-14T10:36:27;24.33;;;3.25;;
77522;SDS011;66637;-29.628;-49.938;2023-06-14T10:39:18;46.10;;;6.70;;
77522;SDS011;66637;-29.628;-49.938;2023-06-14T10:41:52;44.33;;;6.55;;
77522;SDS011;66637;-29.628;-49.938;2023-06-14T10:47:02;28.35;;;4.60;;
77522;SDS011;66637;-29.628;-49.938;2023-06-14T10:49:45;42.25;;;5.15;;
77522;SDS011;66637;-29.628;-49.938;2023-06-14T10:52:25;41.65;;;5.93;;
77522;SDS011;66637;-29.628;-49.938;2023-06-14T10:55:07;34.35;;;4.13;;
77522;SDS011;66637;-29.628;-49.938;2023-06-14T11:00:22;40.65;;;5.20;;
77522;SDS011;66637;-29.628;-49.938;2023-06-14T11:08:27;33.90;;;5.20;;
77522;SDS011;66637;-29.628;-49.938;2023-06-14T11:11:24;33.75;;;3.85;;
77522;SDS011;66637;-29.628;-49.938;2023-06-14T11:14:04;17.02;;;2.97;;
77522;SDS011;66637;-29.628;-49.938;2023-06-14T11:16:36;20.92;;;3.42;;
77522;SDS011;66637;-29.628;-49.938;2023-06-14T11:19:19;16.50;;;2.17;;
77522;SDS011;66637;-29.628;-49.938;2023-06-14T11:21:51;29.55;;;4.95;;
77522;SDS011;66637;-29.628;-49.938;2023-06-14T11:24:23;23.80;;;4.97;;
77522;SDS011;66637;-29.628;-49.938;2023-06-14T11:26:57;22.23;;;4.30;;
77522;SDS011;66637;-29.628;-49.938;2023-06-14T11:29:30;38.03;;;6.32;;
77522;SDS011;66637;-29.628;-49.938;2023-06-14T11:32:00;32.75;;;5.13;;
77522;SDS011;66637;-29.628;-49.938;2023-06-14T11:34:32;19.77;;;3.28;;
77522;SDS011;66637;-29.628;-49.938;2023-06-14T11:37:02;55.78;;;8.18;;
77522;SDS011;66637;-29.628;-49.938;2023-06-14T11:39:34;26.60;;;4.13;;
77522;SDS011;66637;-29.628;-49.938;2023-06-14T11:42:08;25.40;;;3.42;;
77522;SDS011;66637;-29.628;-49.938;2023-06-14T11:44:46;24.00;;;5.28;;
77522;SDS011;66637;-29.628;-49.938;2023-06-14T11:47:17;33.28;;;4.97;;
77522;SDS011;66637;-29.628;-49.938;2023-06-14T11:49:50;42.35;;;6.03;;
77522;SDS011;66637;-29.628;-49.938;2023-06-14T11:52:41;28.90;;;5.60;;
77522;SDS011;66637;-29.628;-49.938;2023-06-14T11:55:15;17.38;;;3.33;;
77522;SDS011;66637;-29.628;-49.938;2023-06-14T11:57:55;14.48;;;3.72;;
77522;SDS011;66637;-29.628;-49.938;2023-06-14T12:00:26;15.93;;;3.22;;
77522;SDS011;66637;-29.628;-49.938;2023-06-14T12:03:02;35.67;;;5.75;;
77522;SDS011;66637;-29.628;-49.938;2023-06-14T12:05:34;17.88;;;3.88;;
77522;SDS011;66637;-29.628;-49.938;2023-06-14T12:08:06;14.20;;;2.85;;
77522;SDS011;66637;-29.628;-49.938;2023-06-14T12:10:41;33.65;;;3.55;;
77522;SDS011;66637;-29.628;-49.938;2023-06-14T12:13:13;18.00;;;3.70;;
77522;SDS011;66637;-29.628;-49.938;2023-06-14T12:15:57;27.52;;;4.25;;
77522;SDS011;66637;-29.628;-49.938;2023-06-14T12:18:33;36.35;;;5.50;;
77522;SDS011;66637;-29.628;-49.938;2023-06-14T12:21:08;13.23;;;2.80;;
77522;SDS011;66637;-29.628;-49.938;2023-06-14T12:23:45;36.47;;;6.13;;
77522;SDS011;66637;-29.628;-49.938;2023-06-14T12:26:17;19.35;;;3.55;;
77522;SDS011;66637;-29.628;-49.938;2023-06-14T12:28:51;23.30;;;5.05;;
77522;SDS011;66637;-29.628;-49.938;2023-06-14T12:31:29;21.63;;;3.72;;
77522;SDS011;66637;-29.628;-49.938;2023-06-14T12:34:17;8.75;;;2.60;;
77522;SDS011;66637;-29.628;-49.938;2023-06-14T12:36:49;20.55;;;4.00;;
77522;SDS011;66637;-29.628;-49.938;2023-06-14T12:39:35;23.92;;;3.60;;
77522;SDS011;66637;-29.628;-49.938;2023-06-14T12:42:20;28.83;;;5.13;;
77522;SDS011;66637;-29.628;-49.938;2023-06-14T12:44:51;29.95;;;5.90;;
77522;SDS011;66637;-29.628;-49.938;2023-06-14T12:47:24;24.35;;;5.22;;
77522;SDS011;66637;-29.628;-49.938;2023-06-14T12:49:59;25.63;;;2.90;;
77522;SDS011;66637;-29.628;-49.938;2023-06-14T12:52:56;43.25;;;5.45;;
77522;SDS011;66637;-29.628;-49.938;2023-06-14T12:55:28;61.15;;;8.95;;
77522;SDS011;66637;-29.628;-49.938;2023-06-14T12:58:02;49.50;;;4.82;;
77522;SDS011;66637;-29.628;-49.938;2023-06-14T13:00:34;35.20;;;4.97;;
77522;SDS011;66637;-29.628;-49.938;2023-06-14T13:03:05;78.53;;;10.65;;
77522;SDS011;66637;-29.628;-49.938;2023-06-14T13:05:35;49.70;;;6.18;;
77522;SDS011;66637;-29.628;-49.938;2023-06-14T13:08:07;69.28;;;8.50;;
77522;SDS011;66637;-29.628;-49.938;2023-06-14T13:10:40;43.10;;;5.97;;
77522;SDS011;66637;-29.628;-49.938;2023-06-14T13:13:11;39.00;;;5.25;;
77522;SDS011;66637;-29.628;-49.938;2023-06-14T13:15:43;24.65;;;3.17;;
77522;SDS011;66637;-29.628;-49.938;2023-06-14T13:18:17;14.40;;;2.45;;
77522;SDS011;66637;-29.628;-49.938;2023-06-14T13:20:52;12.57;;;2.13;;
77522;SDS011;66637;-29.628;-49.938;2023-06-14T13:23:27;22.23;;;3.55;;
77522;SDS011;66637;-29.628;-49.938;2023-06-14T13:26:07;24.65;;;3.20;;
77522;SDS011;66637;-29.628;-49.938;2023-06-14T13:28:40;17.20;;;1.80;;
77522;SDS011;66637;-29.628;-49.938;2023-06-14T13:31:10;37.95;;;5.78;;
77522;SDS011;66637;-29.628;-49.938;2023-06-14T13:33:42;16.15;;;2.35;;
77522;SDS011;66637;-29.628;-49.938;2023-06-14T13:36:14;16.10;;;1.98;;
77522;SDS011;66637;-29.628;-49.938;2023-06-14T13:38:48;20.92;;;4.10;;
77522;SDS011;66637;-29.628;-49.938;2023-06-14T13:41:23;35.70;;;4.95;;
77522;SDS011;66637;-29.628;-49.938;2023-06-14T13:44:01;40.40;;;4.40;;
77522;SDS011;66637;-29.628;-49.938;2023-06-14T13:46:36;33.55;;;4.60;;
77522;SDS011;66637;-29.628;-49.938;2023-06-14T13:49:07;32.10;;;4.05;;
77522;SDS011;66637;-29.628;-49.938;2023-06-14T13:51:39;29.52;;;3.22;;
77522;SDS011;66637;-29.628;-49.938;2023-06-14T13:54:13;38.08;;;4.88;;
77522;SDS011;66637;-29.628;-49.938;2023-06-14T13:56:44;21.05;;;3.10;;
77522;SDS011;66637;-29.628;-49.938;2023-06-14T13:59:15;43.15;;;5.65;;
77522;SDS011;66637;-29.628;-49.938;2023-06-14T14:01:49;37.58;;;4.60;;
77522;SDS011;66637;-29.628;-49.938;2023-06-14T14:04:21;6.70;;;1.40;;
77522;SDS011;66637;-29.628;-49.938;2023-06-14T14:06:52;2.55;;;0.80;;
77522;SDS011;66637;-29.628;-49.938;2023-06-14T14:09:22;5.05;;;1.45;;
77522;SDS011;66637;-29.628;-49.938;2023-06-14T14:11:54;3.17;;;1.20;;
77522;SDS011;66637;-29.628;-49.938;2023-06-14T14:14:27;3.70;;;0.70;;
77522;SDS011;66637;-29.628;-49.938;2023-06-14T14:16:57;4.88;;;0.68;;
77522;SDS011;66637;-29.628;-49.938;2023-06-14T14:19:28;6.43;;;0.40;;
77522;SDS011;66637;-29.628;-49.938;2023-06-14T14:22:00;3.75;;;1.00;;
77522;SDS011;66637;-29.628;-49.938;2023-06-14T14:24:32;3.50;;;0.80;;
77522;SDS011;66637;-29.628;-49.938;2023-06-14T14:27:02;2.92;;;0.40;;
77522;SDS011;66637;-29.628;-49.938;2023-06-14T14:29:34;3.10;;;0.60;;
77522;SDS011;66637;-29.628;-49.938;2023-06-14T14:32:06;3.33;;;0.40;;
77522;SDS011;66637;-29.628;-49.938;2023-06-14T14:34:42;3.05;;;0.43;;
77522;SDS011;66637;-29.628;-49.938;2023-06-14T14:37:16;3.67;;;0.57;;
77522;SDS011;66637;-29.628;-49.938;2023-06-14T14:39:53;2.65;;;0.50;;
77522;SDS011;66637;-29.628;-49.938;2023-06-14T14:42:25;2.05;;;0.47;;
77522;SDS011;66637;-29.628;-49.938;2023-06-14T14:44:59;3.35;;;0.50;;
77522;SDS011;66637;-29.628;-49.938;2023-06-14T14:47:33;2.67;;;0.50;;
77522;SDS011;66637;-29.628;-49.938;2023-06-14T14:50:05;3.53;;;0.57;;
77522;SDS011;66637;-29.628;-49.938;2023-06-14T14:52:34;3.47;;;0.50;;
77522;SDS011;66637;-29.628;-49.938;2023-06-14T14:55:06;1.80;;;0.65;;
77522;SDS011;66637;-29.628;-49.938;2023-06-14T14:57:45;3.13;;;0.50;;
77522;SDS011;66637;-29.628;-49.938;2023-06-14T15:00:17;2.65;;;0.50;;
77522;SDS011;66637;-29.628;-49.938;2023-06-14T15:02:47;1.00;;;0.22;;
77522;SDS011;66637;-29.628;-49.938;2023-06-14T15:05:18;3.72;;;0.60;;
77522;SDS011;66637;-29.628;-49.938;2023-06-14T15:07:54;2.40;;;0.32;;